createdAt,value
2019-03-31T00:02:12.838Z,9.00
2019-03-31T00:04:44.330Z,8.90
2019-03-31T00:07:15.523Z,8.90
2019-03-31T00:09:46.936Z,8.90
2019-03-31T00:12:18.183Z,8.80
2019-03-31T00:14:50.590Z,8.80
2019-03-31T00:17:21.893Z,8.80
2019-03-31T00:19:53.197Z,8.80
2019-03-31T00:22:24.493Z,8.80
2019-03-31T00:24:55.700Z,8.80
2019-03-31T00:27:26.785Z,8.70
2019-03-31T00:29:58.078Z,8.70
2019-03-31T00:32:29.392Z,8.70
2019-03-31T00:35:00.787Z,8.70
2019-03-31T00:37:32.165Z,8.70
2019-03-31T00:40:03.490Z,8.70
2019-03-31T00:42:34.778Z,8.60
2019-03-31T00:45:06.557Z,8.70
2019-03-31T00:47:37.676Z,8.90
2019-03-31T00:50:09.149Z,9.10
2019-03-31T00:52:40.294Z,9.20
2019-03-31T00:55:11.713Z,9.40
2019-03-31T00:57:43.977Z,9.50
2019-03-31T01:00:35.583Z,9.60
2019-03-31T01:03:08.446Z,9.60
2019-03-31T01:05:39.782Z,9.70
2019-03-31T01:08:11.210Z,9.70
2019-03-31T01:10:42.687Z,9.80
2019-03-31T01:13:13.990Z,9.90
2019-03-31T01:15:45.653Z,10.00
2019-03-31T01:18:16.882Z,10.00
2019-03-31T01:20:48.174Z,10.00
2019-03-31T01:23:19.601Z,10.00
2019-03-31T01:25:50.987Z,10.00
2019-03-31T01:28:22.273Z,10.00
2019-03-31T01:30:53.802Z,10.00
2019-03-31T01:33:25.471Z,10.00
2019-03-31T01:35:56.786Z,10.00
2019-03-31T01:38:28.118Z,10.00
2019-03-31T01:40:59.294Z,9.90
2019-03-31T01:43:30.561Z,9.80
2019-03-31T01:46:02.233Z,9.90
2019-03-31T01:48:33.688Z,9.80
2019-03-31T01:51:05.761Z,9.70
2019-03-31T01:53:36.886Z,9.60
2019-03-31T01:56:08.301Z,9.60
2019-03-31T01:58:39.773Z,9.50
2019-03-31T02:01:13.456Z,9.40
2019-03-31T02:03:44.830Z,9.40
2019-03-31T02:06:16.157Z,9.30
2019-03-31T02:08:47.630Z,9.30
2019-03-31T02:11:19.050Z,9.20
2019-03-31T02:13:50.321Z,9.20
2019-03-31T02:16:21.795Z,9.10
2019-03-31T02:18:53.115Z,9.10
2019-03-31T02:21:24.424Z,9.10
2019-03-31T02:23:55.719Z,9.00
2019-03-31T02:26:27.107Z,9.00
2019-03-31T02:28:58.518Z,8.90
2019-03-31T02:31:29.797Z,8.90
2019-03-31T02:34:01.213Z,8.80
2019-03-31T02:36:32.701Z,8.80
2019-03-31T02:39:05.026Z,8.80
2019-03-31T02:41:36.604Z,8.70
2019-03-31T02:44:07.851Z,8.60
2019-03-31T02:46:39.119Z,8.50
2019-03-31T02:49:10.394Z,8.50
2019-03-31T02:51:41.809Z,8.50
2019-03-31T02:54:13.017Z,8.40
2019-03-31T02:56:44.437Z,8.30
2019-03-31T02:59:15.831Z,8.20
2019-03-31T03:01:47.582Z,8.30
2019-03-31T03:04:19.245Z,8.20
2019-03-31T03:06:51.367Z,8.10
2019-03-31T03:09:22.837Z,8.10
2019-03-31T03:11:54.057Z,8.00
2019-03-31T03:14:25.806Z,8.00
2019-03-31T03:16:57.152Z,8.00
2019-03-31T03:19:28.345Z,7.90
2019-03-31T03:21:59.735Z,7.90
2019-03-31T03:24:30.904Z,7.80
2019-03-31T03:27:02.233Z,7.70
2019-03-31T03:29:33.617Z,7.60
2019-03-31T03:32:05.128Z,7.60
2019-03-31T03:34:36.427Z,7.50
2019-03-31T03:37:07.846Z,7.40
2019-03-31T03:39:39.155Z,7.40
2019-03-31T03:42:10.649Z,7.40
2019-03-31T03:44:42.186Z,7.30
2019-03-31T03:47:13.610Z,7.30
2019-03-31T03:49:45.020Z,7.30
2019-03-31T03:52:16.419Z,7.30
2019-03-31T03:54:47.748Z,7.30
2019-03-31T03:57:18.963Z,7.30
2019-03-31T03:59:50.271Z,7.30
2019-03-31T04:02:21.515Z,7.20
2019-03-31T04:04:52.797Z,7.20
2019-03-31T04:07:23.988Z,7.20
2019-03-31T04:09:55.283Z,7.20
2019-03-31T04:12:26.610Z,7.20
2019-03-31T04:14:57.901Z,7.20
2019-03-31T04:17:29.262Z,7.10
2019-03-31T04:20:00.619Z,7.10
2019-03-31T04:22:31.881Z,7.10
2019-03-31T04:25:03.144Z,7.10
2019-03-31T04:27:34.588Z,7.10
2019-03-31T04:30:05.803Z,7.10
2019-03-31T04:32:39.045Z,7.10
2019-03-31T04:35:09.913Z,7.10
2019-03-31T04:37:41.196Z,7.10
2019-03-31T04:40:12.485Z,7.10
2019-03-31T04:42:43.906Z,7.00
2019-03-31T04:45:15.085Z,7.00
2019-03-31T04:47:46.484Z,6.80
2019-03-31T04:50:17.659Z,6.70
2019-03-31T04:52:49.097Z,6.70
2019-03-31T04:55:20.272Z,6.60
2019-03-31T04:57:51.549Z,6.60
2019-03-31T05:00:22.912Z,6.50
2019-03-31T05:02:54.286Z,6.50
2019-03-31T05:05:25.543Z,6.40
2019-03-31T05:07:56.872Z,6.40
2019-03-31T05:10:28.035Z,6.50
2019-03-31T05:12:59.655Z,6.50
2019-03-31T05:15:31.018Z,6.50
2019-03-31T05:18:02.328Z,6.50
2019-03-31T05:20:33.631Z,6.40
2019-03-31T05:23:05.061Z,6.40
2019-03-31T05:25:36.233Z,6.30
2019-03-31T05:28:07.872Z,6.30
2019-03-31T05:30:39.023Z,6.30
2019-03-31T05:33:10.473Z,6.30
2019-03-31T05:35:41.658Z,6.30
2019-03-31T05:38:13.084Z,6.40
2019-03-31T05:40:44.395Z,6.40
2019-03-31T05:43:15.819Z,6.40
2019-03-31T05:45:47.099Z,6.40
2019-03-31T05:48:18.520Z,6.50
2019-03-31T05:50:49.796Z,6.60
2019-03-31T05:53:22.178Z,6.60
2019-03-31T05:55:53.526Z,6.70
2019-03-31T05:58:24.951Z,6.70
2019-03-31T06:00:56.138Z,6.80
2019-03-31T06:03:27.451Z,6.80
2019-03-31T06:05:58.719Z,6.80
2019-03-31T06:08:30.113Z,6.80
2019-03-31T06:11:01.391Z,6.90
2019-03-31T06:13:32.824Z,7.00
2019-03-31T06:16:04.114Z,7.10
2019-03-31T06:18:35.461Z,7.20
2019-03-31T06:21:06.796Z,7.30
2019-03-31T06:23:37.996Z,7.20
2019-03-31T06:26:09.389Z,7.20
2019-03-31T06:28:40.749Z,7.20
2019-03-31T06:31:12.091Z,7.20
2019-03-31T06:33:43.331Z,7.30
2019-03-31T06:36:15.850Z,7.30
2019-03-31T06:38:47.333Z,7.20
2019-03-31T06:41:18.620Z,7.30
2019-03-31T06:43:50.022Z,7.30
2019-03-31T06:46:21.296Z,7.40
2019-03-31T06:48:52.688Z,7.40
2019-03-31T06:51:24.096Z,7.50
2019-03-31T06:53:55.420Z,7.60
2019-03-31T06:56:26.607Z,7.60
2019-03-31T06:58:57.917Z,7.70
2019-03-31T07:01:29.286Z,7.70
2019-03-31T07:04:00.573Z,8.00
2019-03-31T07:06:31.872Z,8.10
2019-03-31T07:09:04.439Z,8.10
2019-03-31T07:11:36.011Z,8.20
2019-03-31T07:14:07.315Z,8.20
2019-03-31T07:16:38.587Z,8.30
2019-03-31T07:19:10.027Z,8.30
2019-03-31T07:21:41.371Z,8.20
2019-03-31T07:24:12.902Z,8.30
2019-03-31T07:26:44.172Z,8.30
2019-03-31T07:29:15.476Z,8.20
2019-03-31T07:31:46.768Z,8.10
2019-03-31T07:34:18.105Z,8.20
2019-03-31T07:36:49.380Z,8.30
2019-03-31T07:39:20.842Z,8.20
2019-03-31T07:41:52.550Z,8.30
2019-03-31T07:44:23.806Z,8.40
2019-03-31T07:46:54.972Z,8.30
2019-03-31T07:49:26.191Z,8.30
2019-03-31T07:51:57.385Z,8.30
2019-03-31T07:54:28.783Z,8.40
2019-03-31T07:57:00.058Z,8.50
2019-03-31T07:59:31.643Z,8.40
2019-03-31T08:02:02.951Z,8.50
2019-03-31T08:04:34.474Z,8.60
2019-03-31T08:07:05.639Z,8.60
2019-03-31T08:09:37.018Z,9.10
2019-03-31T08:12:08.252Z,9.00
2019-03-31T08:14:39.659Z,9.40
2019-03-31T08:17:10.832Z,9.70
2019-03-31T08:19:42.128Z,10.00
2019-03-31T08:22:13.533Z,10.30
2019-03-31T08:24:44.972Z,10.70
2019-03-31T08:27:16.528Z,10.70
2019-03-31T08:29:59.583Z,10.60
2019-03-31T08:32:20.858Z,10.80
2019-03-31T08:34:53.081Z,11.30
2019-03-31T08:37:24.264Z,11.40
2019-03-31T08:39:55.600Z,11.50
2019-03-31T08:42:27.163Z,11.40
2019-03-31T08:44:58.599Z,11.70
2019-03-31T08:47:29.876Z,10.80
2019-03-31T08:50:02.334Z,10.90
2019-03-31T08:52:34.129Z,11.10
2019-03-31T08:55:05.474Z,11.20
2019-03-31T08:57:36.807Z,11.70
2019-03-31T09:03:57.447Z,12.50
2019-03-31T09:06:28.617Z,12.90
2019-03-31T09:09:00.013Z,12.80
2019-03-31T09:11:31.806Z,12.50
2019-03-31T09:14:03.045Z,12.00
2019-03-31T09:16:34.609Z,11.20
2019-03-31T09:19:06.073Z,11.70
2019-03-31T09:21:37.609Z,12.20
2019-03-31T09:24:09.145Z,12.30
2019-03-31T09:26:40.717Z,12.30
2019-03-31T09:29:12.108Z,12.60
2019-03-31T09:31:43.486Z,12.60
2019-03-31T09:34:14.913Z,12.20
2019-03-31T09:36:46.450Z,12.40
2019-03-31T09:39:17.893Z,12.30
2019-03-31T09:41:49.402Z,12.10
2019-03-31T09:44:20.784Z,11.60
2019-03-31T09:47:31.166Z,11.60
2019-03-31T10:00:48.119Z,12.30
2019-03-31T10:03:19.899Z,12.30
2019-03-31T10:05:51.349Z,12.50
2019-03-31T10:08:22.749Z,12.50
2019-03-31T10:10:54.267Z,12.40
2019-03-31T10:13:25.826Z,12.40
2019-03-31T10:15:58.385Z,12.60
2019-03-31T10:18:29.758Z,12.40
2019-03-31T10:21:01.066Z,12.70
2019-03-31T10:23:33.678Z,12.70
2019-03-31T10:26:05.109Z,12.90
2019-03-31T10:28:36.421Z,12.80
2019-03-31T10:31:07.817Z,12.90
2019-03-31T10:33:39.328Z,13.20
2019-03-31T10:36:12.842Z,13.30
2019-03-31T10:38:43.917Z,13.70
2019-03-31T10:41:15.427Z,13.20
2019-03-31T10:43:46.952Z,13.30
2019-03-31T10:46:18.442Z,13.40
2019-03-31T10:48:49.856Z,13.20
2019-03-31T10:51:21.375Z,12.90
2019-03-31T10:53:52.838Z,13.10
2019-03-31T10:56:24.274Z,13.40
2019-03-31T10:58:55.725Z,13.70
2019-03-31T11:01:27.250Z,13.70
2019-03-31T11:03:58.841Z,13.30
2019-03-31T11:06:30.341Z,12.30
2019-03-31T11:09:01.941Z,11.90
2019-03-31T11:11:33.497Z,12.20
2019-03-31T11:14:04.973Z,12.70
2019-03-31T11:16:36.460Z,12.60
2019-03-31T11:19:08.210Z,12.50
2019-03-31T11:22:10.857Z,12.80
2019-03-31T11:24:42.401Z,12.80
2019-03-31T11:27:13.817Z,12.80
2019-03-31T11:29:45.269Z,13.00
2019-03-31T11:32:16.685Z,13.30
2019-03-31T11:34:48.312Z,13.80
2019-03-31T11:37:19.803Z,13.90
2019-03-31T11:39:51.315Z,13.80
2019-03-31T11:42:22.904Z,13.90
2019-03-31T11:44:54.147Z,14.00
2019-03-31T11:47:25.488Z,13.90
2019-03-31T11:49:57.013Z,13.90
2019-03-31T11:52:28.537Z,13.50
2019-03-31T11:55:00.032Z,13.80
2019-03-31T11:57:31.517Z,13.50
2019-03-31T12:00:03.010Z,13.30
2019-03-31T12:05:06.322Z,13.50
2019-03-31T12:07:46.687Z,13.70
2019-03-31T12:10:11.183Z,13.70
2019-03-31T12:12:44.452Z,14.00
2019-03-31T12:15:16.172Z,13.70
2019-03-31T12:48:38.357Z,13.00
2019-03-31T12:51:10.002Z,13.10
2019-03-31T12:53:41.605Z,12.60
2019-03-31T12:56:13.212Z,13.00
2019-03-31T12:58:45.645Z,12.90
2019-03-31T13:01:17.134Z,13.10
2019-03-31T13:03:48.724Z,13.30
2019-03-31T13:06:20.329Z,12.70
2019-03-31T13:08:51.627Z,12.40
2019-03-31T13:11:22.929Z,12.40
2019-03-31T13:13:54.357Z,12.40
2019-03-31T13:16:25.827Z,12.10
2019-03-31T13:18:57.561Z,12.20
2019-03-31T13:21:29.050Z,12.60
2019-03-31T13:24:00.421Z,12.60
2019-03-31T13:26:31.814Z,12.80
2019-03-31T13:29:03.235Z,12.70
2019-03-31T13:31:34.716Z,12.00
2019-03-31T13:34:07.000Z,12.10
2019-03-31T13:36:38.657Z,12.40
2019-03-31T13:39:10.284Z,12.90
2019-03-31T13:41:41.880Z,12.90
2019-03-31T13:44:14.296Z,12.90
2019-03-31T13:46:45.821Z,13.10
2019-03-31T13:49:17.360Z,13.40
2019-03-31T13:51:49.058Z,12.90
2019-03-31T13:54:21.423Z,12.60
2019-03-31T13:56:53.655Z,12.20
2019-03-31T13:59:25.557Z,12.00
2019-03-31T14:02:00.044Z,12.00
2019-03-31T14:04:30.120Z,11.90
2019-03-31T14:07:04.283Z,12.30
2019-03-31T14:09:34.633Z,12.60
2019-03-31T14:12:06.024Z,12.90
2019-03-31T14:14:37.342Z,12.60
2019-03-31T14:17:08.835Z,12.20
2019-03-31T14:19:40.457Z,12.40
2019-03-31T14:22:11.905Z,12.20
2019-03-31T14:24:43.221Z,12.00
2019-03-31T14:27:14.645Z,11.80
2019-03-31T14:29:46.069Z,11.90
2019-03-31T14:32:17.559Z,11.80
2019-03-31T14:34:50.055Z,11.60
2019-03-31T14:37:21.745Z,11.60
2019-03-31T14:39:53.136Z,11.40
2019-03-31T14:42:24.846Z,11.50
2019-03-31T14:44:56.303Z,11.20
2019-03-31T14:47:27.917Z,11.20
2019-03-31T14:49:59.320Z,11.00
2019-03-31T14:52:30.717Z,11.10
2019-03-31T14:55:02.130Z,11.30
2019-03-31T14:57:33.634Z,11.00
2019-03-31T15:00:14.624Z,11.10
2019-03-31T15:02:38.698Z,11.10
2019-03-31T15:05:10.253Z,11.50
2019-03-31T15:07:41.773Z,11.80
2019-03-31T15:10:13.293Z,11.70
2019-03-31T15:12:44.769Z,11.70
2019-03-31T15:15:16.057Z,11.70
2019-03-31T15:17:47.465Z,11.70
2019-03-31T15:20:18.980Z,11.50
2019-03-31T15:22:51.641Z,11.50
2019-03-31T15:25:24.133Z,11.40
2019-03-31T15:27:55.633Z,11.20
2019-03-31T15:30:27.044Z,11.20
2019-03-31T15:32:58.437Z,11.20
2019-03-31T15:35:29.854Z,11.20
2019-03-31T15:38:01.269Z,11.30
2019-03-31T15:40:32.936Z,11.30
2019-03-31T15:43:04.329Z,11.40
2019-03-31T15:45:35.649Z,11.00
2019-03-31T15:48:07.018Z,10.80
2019-03-31T15:50:38.517Z,10.80
2019-03-31T15:53:10.032Z,10.60
2019-03-31T15:55:41.318Z,10.30
2019-03-31T15:58:12.701Z,10.20
2019-03-31T16:00:44.111Z,10.30
2019-03-31T16:03:17.069Z,10.10
2019-03-31T16:05:48.718Z,10.00
2019-03-31T16:08:19.665Z,9.80
2019-03-31T16:10:50.529Z,9.80
2019-03-31T16:13:21.521Z,9.80
2019-03-31T16:15:52.309Z,9.80
2019-03-31T16:18:23.197Z,9.70
2019-03-31T16:20:54.104Z,9.60
2019-03-31T16:23:24.893Z,9.40
2019-03-31T16:25:58.680Z,9.40
2019-03-31T16:28:29.712Z,9.30
2019-03-31T16:31:00.825Z,9.30
2019-03-31T16:33:31.695Z,9.40
2019-03-31T16:36:02.560Z,9.30
2019-03-31T16:38:33.466Z,9.10
2019-03-31T16:41:04.345Z,9.00
2019-03-31T16:43:35.241Z,8.80
2019-03-31T16:46:06.136Z,8.90
2019-03-31T16:48:37.024Z,8.80
2019-03-31T16:51:08.096Z,8.70
2019-03-31T16:53:39.064Z,8.80
2019-03-31T16:56:11.405Z,8.70
2019-03-31T16:58:44.009Z,8.60
2019-03-31T17:01:14.936Z,8.50
2019-03-31T17:03:45.830Z,8.50
2019-03-31T17:06:16.737Z,8.40
2019-03-31T17:08:47.673Z,8.30
2019-03-31T17:11:20.378Z,8.30
2019-03-31T17:13:52.360Z,8.10
2019-03-31T17:16:23.246Z,8.10
2019-03-31T17:18:54.109Z,8.10
2019-03-31T17:21:24.984Z,7.90
2019-03-31T17:23:56.021Z,7.80
2019-03-31T17:26:27.081Z,7.80
2019-03-31T17:28:57.970Z,7.70
2019-03-31T17:31:28.765Z,7.70
2019-03-31T17:33:59.668Z,7.60
2019-03-31T17:36:30.636Z,7.60
2019-03-31T17:39:01.520Z,7.60
2019-03-31T17:41:33.592Z,7.50
2019-03-31T17:44:04.496Z,7.40
2019-03-31T17:46:35.373Z,7.40
2019-03-31T17:49:06.198Z,7.40
2019-03-31T17:51:37.273Z,7.30
2019-03-31T17:54:08.175Z,7.30
2019-03-31T17:56:39.030Z,7.30
2019-03-31T17:59:09.831Z,7.30
2019-03-31T18:01:40.625Z,7.20
2019-03-31T18:04:11.510Z,7.10
2019-03-31T18:06:44.293Z,7.10
2019-03-31T18:09:15.226Z,7.10
2019-03-31T18:11:45.982Z,7.00
2019-03-31T18:14:16.828Z,7.00
2019-03-31T18:16:47.805Z,6.90
2019-03-31T18:19:20.382Z,6.90
2019-03-31T18:21:51.185Z,6.70
2019-03-31T18:24:22.156Z,6.70
2019-03-31T18:26:53.000Z,6.70
2019-03-31T18:29:24.060Z,6.60
2019-03-31T18:31:54.940Z,6.60
2019-03-31T18:34:25.774Z,6.50
2019-03-31T18:36:56.717Z,6.50
2019-03-31T18:39:27.599Z,6.30
2019-03-31T18:41:58.620Z,6.20
2019-03-31T18:44:29.509Z,6.30
2019-03-31T18:47:01.519Z,6.20
2019-03-31T18:49:32.514Z,6.10
2019-03-31T18:52:03.484Z,6.10
2019-03-31T18:54:52.256Z,6.00
2019-03-31T18:57:41.329Z,5.90
2019-03-31T19:00:31.276Z,5.90
2019-03-31T19:03:25.517Z,5.90
2019-03-31T19:06:27.552Z,5.70
2019-03-31T19:09:16.205Z,5.70
2019-03-31T19:12:06.190Z,5.60
2019-03-31T19:14:58.938Z,5.50
2019-03-31T19:18:01.972Z,5.40
2019-03-31T19:20:51.913Z,5.40
2019-03-31T19:23:44.970Z,5.30
2019-03-31T19:26:53.284Z,5.20
2019-03-31T19:29:46.340Z,5.10
2019-03-31T19:32:39.396Z,5.00
2019-03-31T19:35:34.501Z,5.00
2019-03-31T19:38:20.595Z,5.00
2019-03-31T19:41:25.632Z,4.90
2019-03-31T19:44:30.874Z,4.80
2019-03-31T19:47:20.961Z,4.70
2019-03-31T19:50:26.407Z,4.60
2019-03-31T19:53:19.157Z,4.60
2019-03-31T19:56:09.597Z,4.50
2019-03-31T19:59:00.806Z,4.40
2019-03-31T20:01:50.649Z,4.30
2019-03-31T20:04:47.390Z,4.20
2019-03-31T20:07:26.417Z,4.20
2019-03-31T20:10:16.708Z,4.10
2019-03-31T20:13:06.489Z,4.10
2019-03-31T20:15:47.461Z,4.10
2019-03-31T20:18:40.006Z,4.00
2019-03-31T20:21:32.291Z,4.00
2019-03-31T20:24:23.660Z,3.90
2019-03-31T20:27:03.507Z,3.80
2019-03-31T20:29:47.078Z,3.80
2019-03-31T20:32:35.591Z,3.70
2019-03-31T20:35:29.059Z,3.60
2019-03-31T20:38:31.432Z,3.60
2019-03-31T20:41:14.966Z,3.50
2019-03-31T20:43:54.096Z,3.50
2019-03-31T20:46:25.412Z,3.40
2019-03-31T20:48:56.447Z,3.30
2019-03-31T20:51:27.627Z,3.20
2019-03-31T20:53:58.500Z,3.20
2019-03-31T20:56:29.410Z,3.10
2019-03-31T20:59:02.182Z,3.10
2019-03-31T21:01:34.962Z,3.10
2019-03-31T21:04:05.877Z,3.00
2019-03-31T21:06:36.709Z,2.90
2019-03-31T21:09:09.230Z,2.90
2019-03-31T21:11:40.051Z,2.80
2019-03-31T21:14:11.026Z,2.70
2019-03-31T21:16:41.994Z,2.70
2019-03-31T21:19:12.899Z,2.70
2019-03-31T21:21:43.799Z,2.70
2019-03-31T21:24:14.685Z,2.80
2019-03-31T21:26:45.674Z,2.70
2019-03-31T21:29:16.565Z,2.60
2019-03-31T21:31:48.573Z,2.60
2019-03-31T21:34:19.357Z,2.50
2019-03-31T21:36:50.427Z,2.50
2019-03-31T21:39:21.694Z,2.50
2019-03-31T21:41:52.601Z,2.40
2019-03-31T21:44:23.500Z,2.30
2019-03-31T21:46:55.973Z,2.30
2019-03-31T21:49:27.030Z,2.30
2019-03-31T21:51:58.124Z,2.30
2019-03-31T21:54:29.129Z,2.20
2019-03-31T21:56:59.975Z,2.20
2019-03-31T21:59:33.469Z,2.20
2019-03-31T22:02:03.656Z,2.10
2019-03-31T22:04:34.481Z,2.10
2019-03-31T22:07:05.596Z,2.10
2019-03-31T22:09:36.468Z,2.10
2019-03-31T22:12:07.482Z,2.00
2019-03-31T22:14:38.275Z,2.00
2019-03-31T22:17:09.263Z,2.00
2019-03-31T22:19:40.286Z,2.00
2019-03-31T22:22:11.214Z,1.90
2019-03-31T22:24:42.094Z,1.80
2019-03-31T22:27:13.097Z,1.80
2019-03-31T22:29:44.066Z,1.70
2019-03-31T22:32:15.045Z,1.70
2019-03-31T22:34:45.981Z,1.70
2019-03-31T22:37:16.801Z,1.60
2019-03-31T22:39:47.753Z,1.60
2019-03-31T22:42:18.693Z,1.50
2019-03-31T22:44:49.723Z,1.40
2019-03-31T22:47:20.686Z,1.40
2019-03-31T22:49:51.668Z,1.30
2019-03-31T22:52:22.656Z,1.20
2019-03-31T22:54:53.464Z,1.20
2019-03-31T22:57:25.378Z,1.20
2019-03-31T22:59:57.402Z,1.10
2019-03-31T23:02:28.337Z,1.10
2019-03-31T23:04:59.154Z,1.00
2019-03-31T23:07:29.954Z,1.00
2019-03-31T23:10:00.929Z,0.90
2019-03-31T23:12:33.566Z,0.90
2019-03-31T23:15:04.443Z,0.90
2019-03-31T23:17:35.429Z,0.90
2019-03-31T23:20:06.308Z,0.80
2019-03-31T23:22:37.422Z,0.80
2019-03-31T23:25:08.221Z,0.80
2019-03-31T23:27:40.319Z,0.70
2019-03-31T23:30:11.787Z,0.70
2019-03-31T23:32:42.717Z,0.70
2019-03-31T23:35:13.580Z,0.60
2019-03-31T23:37:44.582Z,0.50
2019-03-31T23:40:15.552Z,0.50
2019-03-31T23:42:46.632Z,0.50
2019-03-31T23:45:17.540Z,0.40
2019-03-31T23:47:48.337Z,0.30
2019-03-31T23:50:19.201Z,0.30
2019-03-31T23:52:50.093Z,0.30
2019-03-31T23:55:24.529Z,0.20
2019-03-31T23:57:55.464Z,0.20
